createdAt,value
2023-04-06T00:01:00.871Z,0.00
2023-04-06T00:02:00.888Z,0.00
2023-04-06T00:03:00.975Z,0.00
2023-04-06T00:04:00.892Z,0.00
2023-04-06T00:05:00.828Z,0.00
2023-04-06T00:06:00.865Z,0.00
2023-04-06T00:07:00.828Z,0.00
2023-04-06T00:08:00.841Z,0.00
2023-04-06T00:09:00.813Z,0.00
2023-04-06T00:10:00.783Z,0.00
2023-04-06T00:11:00.786Z,0.00
2023-04-06T00:12:00.784Z,0.00
2023-04-06T00:13:00.769Z,0.00
2023-04-06T00:14:00.776Z,0.00
2023-04-06T00:15:00.763Z,0.00
2023-04-06T00:16:00.769Z,0.00
2023-04-06T00:17:00.804Z,0.00
2023-04-06T00:18:00.746Z,0.00
2023-04-06T00:19:00.727Z,0.00
2023-04-06T00:20:00.709Z,0.00
2023-04-06T00:21:00.747Z,0.00
2023-04-06T00:22:00.734Z,0.00
2023-04-06T00:23:00.697Z,0.00
2023-04-06T00:24:00.730Z,0.00
2023-04-06T00:25:00.780Z,0.00
2023-04-06T00:26:00.684Z,0.00
2023-04-06T00:27:00.694Z,0.00
2023-04-06T00:28:00.735Z,0.00
2023-04-06T00:29:00.669Z,0.00
2023-04-06T00:30:00.671Z,0.00
2023-04-06T00:31:00.670Z,0.00
2023-04-06T00:32:00.694Z,0.00
2023-04-06T00:33:00.667Z,0.00
2023-04-06T00:34:00.650Z,0.00
2023-04-06T00:35:00.628Z,0.00
2023-04-06T00:36:00.692Z,0.00
2023-04-06T00:37:00.604Z,0.00
2023-04-06T00:38:00.576Z,0.00
2023-04-06T00:39:00.680Z,0.00
2023-04-06T00:40:00.581Z,0.00
2023-04-06T00:41:00.581Z,0.00
2023-04-06T00:42:00.574Z,0.00
2023-04-06T00:43:00.570Z,0.00
2023-04-06T00:44:00.558Z,0.00
2023-04-06T00:45:00.554Z,0.00
2023-04-06T00:46:00.592Z,0.00
2023-04-06T00:47:00.527Z,0.00
2023-04-06T00:48:00.555Z,0.00
2023-04-06T00:49:00.558Z,0.00
2023-04-06T00:50:00.519Z,0.00
2023-04-06T00:51:00.537Z,0.00
2023-04-06T00:52:00.560Z,0.00
2023-04-06T00:53:00.476Z,0.00
2023-04-06T00:54:00.471Z,0.00
2023-04-06T00:55:00.475Z,0.00
2023-04-06T00:56:00.482Z,0.00
2023-04-06T00:57:00.470Z,0.00
2023-04-06T00:58:00.436Z,0.00
2023-04-06T00:59:00.486Z,0.00
2023-04-06T01:00:00.423Z,0.00
2023-04-06T01:01:00.515Z,0.00
2023-04-06T01:02:00.471Z,0.00
2023-04-06T01:03:00.491Z,0.00
2023-04-06T01:04:00.399Z,0.00
2023-04-06T01:05:00.490Z,0.00
2023-04-06T01:06:00.418Z,0.00
2023-04-06T01:07:00.371Z,0.00
2023-04-06T01:08:00.407Z,0.00
2023-04-06T01:09:00.429Z,0.00
2023-04-06T01:10:00.358Z,0.00
2023-04-06T01:11:00.354Z,0.00
2023-04-06T01:12:00.332Z,0.00
2023-04-06T01:13:00.381Z,0.00
2023-04-06T01:14:00.354Z,0.00
2023-04-06T01:15:00.360Z,0.00
2023-04-06T01:16:00.367Z,0.00
2023-04-06T01:17:00.324Z,0.00
2023-04-06T01:18:00.355Z,0.00
2023-04-06T01:19:00.322Z,0.00
2023-04-06T01:20:00.280Z,0.00
2023-04-06T01:21:00.317Z,0.00
2023-04-06T01:22:00.262Z,0.00
2023-04-06T01:23:00.254Z,0.00
2023-04-06T01:24:00.265Z,0.00
2023-04-06T01:25:00.259Z,0.00
2023-04-06T01:26:00.257Z,0.00
2023-04-06T01:27:00.232Z,0.00
2023-04-06T01:28:00.217Z,0.00
2023-04-06T01:29:00.209Z,0.00
2023-04-06T01:30:00.212Z,0.00
2023-04-06T01:31:00.241Z,0.00
2023-04-06T01:32:00.202Z,0.00
2023-04-06T01:33:00.250Z,0.00
2023-04-06T01:34:00.194Z,0.00
2023-04-06T01:35:00.186Z,0.00
2023-04-06T01:36:00.211Z,0.00
2023-04-06T01:37:00.152Z,0.00
2023-04-06T01:38:00.164Z,0.00
2023-04-06T01:39:00.153Z,0.00
2023-04-06T01:40:00.232Z,0.00
2023-04-06T01:41:00.129Z,0.00
2023-04-06T01:42:00.156Z,0.00
2023-04-06T01:43:00.129Z,0.00
2023-04-06T01:44:00.132Z,0.00
2023-04-06T01:45:00.104Z,0.00
2023-04-06T01:46:00.125Z,0.00
2023-04-06T01:47:00.190Z,0.00
2023-04-06T01:48:00.172Z,0.00
2023-04-06T01:49:00.120Z,0.00
2023-04-06T01:50:00.061Z,0.00
2023-04-06T01:51:00.094Z,0.00
2023-04-06T01:52:00.058Z,0.00
2023-04-06T01:53:00.041Z,0.00
2023-04-06T01:54:00.143Z,0.00
2023-04-06T01:55:00.013Z,0.00
2023-04-06T01:56:00.024Z,0.00
2023-04-06T01:57:00.003Z,0.00
2023-04-06T01:57:59.997Z,0.00
2023-04-06T01:58:59.993Z,0.00
2023-04-06T01:59:59.984Z,0.00
2023-04-06T02:01:00.005Z,0.00
2023-04-06T02:02:00.007Z,0.00
2023-04-06T02:03:00.042Z,0.00
2023-04-06T02:03:59.973Z,0.00
2023-04-06T02:04:59.978Z,0.00
2023-04-06T02:05:59.937Z,0.00
2023-04-06T02:06:59.947Z,0.00
2023-04-06T02:07:59.922Z,0.00
2023-04-06T02:08:59.907Z,0.00
2023-04-06T02:09:59.895Z,0.00
2023-04-06T02:10:59.900Z,0.00
2023-04-06T02:11:59.884Z,0.00
2023-04-06T02:12:59.877Z,0.00
2023-04-06T02:13:59.873Z,0.00
2023-04-06T02:14:59.897Z,0.00
2023-04-06T02:15:59.913Z,0.00
2023-04-06T02:16:59.849Z,0.00
2023-04-06T02:17:59.872Z,0.00
2023-04-06T02:18:59.831Z,0.00
2023-04-06T02:19:59.849Z,0.00
2023-04-06T02:20:59.870Z,0.00
2023-04-06T02:21:59.827Z,0.00
2023-04-06T02:22:59.794Z,0.00
2023-04-06T02:23:59.787Z,0.00
2023-04-06T02:24:59.859Z,0.00
2023-04-06T02:25:59.779Z,0.00
2023-04-06T02:26:59.765Z,0.00
2023-04-06T02:27:59.769Z,0.00
2023-04-06T02:28:59.775Z,0.00
2023-04-06T02:29:59.743Z,0.00
2023-04-06T02:30:59.764Z,0.00
2023-04-06T02:31:59.772Z,0.00
2023-04-06T02:32:59.749Z,0.00
2023-04-06T02:33:59.712Z,0.00
2023-04-06T02:34:59.724Z,0.00
2023-04-06T02:35:59.745Z,0.00
2023-04-06T02:36:59.727Z,0.00
2023-04-06T02:37:59.738Z,0.00
2023-04-06T02:38:59.685Z,0.00
2023-04-06T02:39:59.666Z,0.00
2023-04-06T02:40:59.662Z,0.00
2023-04-06T02:41:59.673Z,0.00
2023-04-06T02:42:59.655Z,0.00
2023-04-06T02:43:59.676Z,0.00
2023-04-06T02:44:59.633Z,0.00
2023-04-06T02:45:59.676Z,0.00
2023-04-06T02:46:59.640Z,0.00
2023-04-06T02:47:59.639Z,0.00
2023-04-06T02:48:59.603Z,0.00
2023-04-06T02:49:59.717Z,0.00
2023-04-06T02:50:59.598Z,0.00
2023-04-06T02:51:59.573Z,0.00
2023-04-06T02:52:59.564Z,0.00
2023-04-06T02:53:59.556Z,0.00
2023-04-06T02:54:59.561Z,0.00
2023-04-06T02:55:59.545Z,0.00
2023-04-06T02:56:59.568Z,0.00
2023-04-06T02:57:59.556Z,0.00
2023-04-06T02:58:59.560Z,0.00
2023-04-06T02:59:59.516Z,0.00
2023-04-06T03:00:59.533Z,0.00
2023-04-06T03:01:59.535Z,0.00
2023-04-06T03:02:59.598Z,0.00
2023-04-06T03:03:59.506Z,0.00
2023-04-06T03:04:59.461Z,0.00
2023-04-06T03:05:59.512Z,0.00
2023-04-06T03:07:01.367Z,0.00
2023-04-06T03:07:59.449Z,0.00
2023-04-06T03:08:59.530Z,0.00
2023-04-06T03:09:59.457Z,0.00
2023-04-06T03:10:59.441Z,0.00
2023-04-06T03:11:59.458Z,0.00
2023-04-06T03:12:59.405Z,0.00
2023-04-06T03:13:59.404Z,0.00
2023-04-06T03:14:59.399Z,0.00
2023-04-06T03:15:59.468Z,0.00
2023-04-06T03:16:59.381Z,0.00
2023-04-06T03:18:00.586Z,0.00
2023-04-06T03:18:59.400Z,0.00
2023-04-06T03:19:59.349Z,0.00
2023-04-06T03:20:59.345Z,0.00
2023-04-06T03:21:59.331Z,0.00
2023-04-06T03:22:59.333Z,0.00
2023-04-06T03:23:59.338Z,0.00
2023-04-06T03:25:00.963Z,0.00
2023-04-06T03:25:59.342Z,0.00
2023-04-06T03:26:59.300Z,0.00
2023-04-06T03:27:59.294Z,0.00
2023-04-06T03:28:59.274Z,0.00
2023-04-06T03:29:59.312Z,0.00
2023-04-06T03:30:59.310Z,0.00
2023-04-06T03:31:59.265Z,0.00
2023-04-06T03:32:59.314Z,0.00
2023-04-06T03:33:59.285Z,0.00
2023-04-06T03:34:59.266Z,0.00
2023-04-06T03:35:59.234Z,0.00
2023-04-06T03:37:09.357Z,0.00
2023-04-06T03:37:59.231Z,0.00
2023-04-06T03:38:59.201Z,0.00
2023-04-06T03:39:59.189Z,0.00
2023-04-06T03:40:59.170Z,0.00
2023-04-06T03:41:59.167Z,0.00
2023-04-06T03:42:59.173Z,0.00
2023-04-06T03:43:59.157Z,0.00
2023-04-06T03:44:59.146Z,0.00
2023-04-06T03:45:59.221Z,0.00
2023-04-06T03:46:59.234Z,0.00
2023-04-06T03:47:59.155Z,0.00
2023-04-06T03:48:59.107Z,0.00
2023-04-06T03:49:59.104Z,0.00
2023-04-06T03:50:59.106Z,0.00
2023-04-06T03:51:59.080Z,0.00
2023-04-06T03:52:59.074Z,0.00
2023-04-06T03:53:59.074Z,0.00
2023-04-06T03:54:59.046Z,0.00
2023-04-06T03:55:59.045Z,0.00
2023-04-06T03:56:59.045Z,0.00
2023-04-06T03:57:59.046Z,0.00
2023-04-06T03:58:59.050Z,0.00
2023-04-06T03:59:59.049Z,0.00
2023-04-06T04:00:59.019Z,0.00
2023-04-06T04:01:59.036Z,4.00
2023-04-06T04:02:59.128Z,4.00
2023-04-06T04:03:59.088Z,0.00
2023-04-06T04:04:59.097Z,4.00
2023-04-06T04:05:59.002Z,4.00
2023-04-06T04:06:58.958Z,4.00
2023-04-06T04:07:58.950Z,8.00
2023-04-06T04:08:58.939Z,8.00
2023-04-06T04:09:58.923Z,8.00
2023-04-06T04:10:58.979Z,8.00
2023-04-06T04:11:58.914Z,12.00
2023-04-06T04:12:58.901Z,16.00
2023-04-06T04:13:58.910Z,16.00
2023-04-06T04:14:58.927Z,20.00
2023-04-06T04:15:58.895Z,24.00
2023-04-06T04:16:58.892Z,28.00
2023-04-06T04:17:58.899Z,32.00
2023-04-06T04:18:58.874Z,40.00
2023-04-06T04:19:58.852Z,44.00
2023-04-06T04:20:58.837Z,52.00
2023-04-06T04:21:58.843Z,60.00
2023-04-06T04:22:58.812Z,68.00
2023-04-06T04:23:58.814Z,76.00
2023-04-06T04:24:58.817Z,88.00
2023-04-06T04:25:58.827Z,96.00
2023-04-06T04:26:58.829Z,112.00
2023-04-06T04:27:58.824Z,124.00
2023-04-06T04:28:58.766Z,136.00
2023-04-06T04:29:58.767Z,152.00
2023-04-06T04:30:58.825Z,164.00
2023-04-06T04:31:58.805Z,180.00
2023-04-06T04:32:58.902Z,196.00
2023-04-06T04:33:58.758Z,212.00
2023-04-06T04:34:58.752Z,232.00
2023-04-06T04:35:58.770Z,252.00
2023-04-06T04:36:58.821Z,272.00
2023-04-06T04:37:58.819Z,292.00
2023-04-06T04:38:58.700Z,312.00
2023-04-06T04:39:58.720Z,336.00
2023-04-06T04:40:58.686Z,360.00
2023-04-06T04:41:58.697Z,380.00
2023-04-06T04:42:58.675Z,404.00
2023-04-06T04:43:58.927Z,432.00
2023-04-06T04:44:58.654Z,456.00
2023-04-06T04:45:58.870Z,480.00
2023-04-06T04:46:58.688Z,508.00
2023-04-06T04:47:58.664Z,540.00
2023-04-06T04:48:58.638Z,568.00
2023-04-06T04:49:58.669Z,596.00
2023-04-06T04:50:58.617Z,628.00
2023-04-06T04:51:58.615Z,656.00
2023-04-06T04:52:58.618Z,692.00
2023-04-06T04:53:58.576Z,724.00
2023-04-06T04:54:58.575Z,760.00
2023-04-06T04:55:58.597Z,796.00
2023-04-06T04:56:58.547Z,836.00
2023-04-06T04:57:58.555Z,876.00
2023-04-06T04:58:58.557Z,912.00
2023-04-06T04:59:58.557Z,948.00
2023-04-06T05:00:58.561Z,984.00
2023-04-06T05:01:58.583Z,1028.00
2023-04-06T05:02:58.638Z,1068.00
2023-04-06T05:03:58.523Z,1108.00
2023-04-06T05:04:58.503Z,1144.00
2023-04-06T05:05:58.487Z,1180.00
2023-04-06T05:06:58.489Z,1216.00
2023-04-06T05:07:58.457Z,1256.00
2023-04-06T05:08:58.441Z,1288.00
2023-04-06T05:09:58.441Z,1328.00
2023-04-06T05:10:58.437Z,1364.00
2023-04-06T05:11:58.448Z,1396.00
2023-04-06T05:12:58.407Z,1432.00
2023-04-06T05:13:58.406Z,1468.00
2023-04-06T05:14:58.405Z,1508.00
2023-04-06T05:15:58.427Z,1540.00
2023-04-06T05:16:58.389Z,1576.00
2023-04-06T05:17:58.438Z,1612.00
2023-04-06T05:18:58.399Z,1648.00
2023-04-06T05:19:58.428Z,1680.00
2023-04-06T05:20:58.352Z,1720.00
2023-04-06T05:21:58.344Z,1760.00
2023-04-06T05:22:58.336Z,1796.00
2023-04-06T05:23:58.344Z,1828.00
2023-04-06T05:24:58.332Z,1872.00
2023-04-06T05:25:58.338Z,1908.00
2023-04-06T05:26:58.300Z,1940.00
2023-04-06T05:27:58.295Z,1980.00
2023-04-06T05:28:58.282Z,2020.00
2023-04-06T05:29:58.274Z,2056.00
2023-04-06T05:30:58.445Z,2092.00
2023-04-06T05:31:58.277Z,2124.00
2023-04-06T05:32:58.291Z,2164.00
2023-04-06T05:33:58.261Z,2200.00
2023-04-06T05:34:58.250Z,2240.00
2023-04-06T05:35:58.247Z,2272.00
2023-04-06T05:36:58.234Z,2304.00
2023-04-06T05:37:58.230Z,2344.00
2023-04-06T05:38:58.210Z,2384.00
2023-04-06T05:39:58.184Z,2420.00
2023-04-06T05:40:58.177Z,2452.00
2023-04-06T05:41:58.178Z,2488.00
2023-04-06T05:42:58.173Z,2520.00
2023-04-06T05:43:58.170Z,2556.00
2023-04-06T05:44:58.157Z,2596.00
2023-04-06T05:45:58.164Z,2632.00
2023-04-06T05:46:58.206Z,2660.00
2023-04-06T05:48:05.447Z,2688.00
2023-04-06T05:50:03.706Z,2752.00
2023-04-06T05:51:02.579Z,2788.00
2023-04-06T05:52:02.571Z,2824.00
2023-04-06T05:53:02.557Z,2860.00
2023-04-06T05:54:02.572Z,2896.00
2023-04-06T05:55:02.547Z,2920.00
2023-04-06T05:56:02.539Z,2948.00
2023-04-06T05:57:02.525Z,2972.00
2023-04-06T05:58:02.560Z,3008.00
2023-04-06T05:59:02.564Z,3040.00
2023-04-06T06:00:02.571Z,3064.00
2023-04-06T06:01:02.496Z,3088.00
2023-04-06T06:02:02.618Z,3124.00
2023-04-06T06:03:02.490Z,3160.00
2023-04-06T06:04:02.508Z,3192.00
2023-04-06T06:05:02.506Z,3220.00
2023-04-06T06:06:03.574Z,3252.00
2023-04-06T06:07:02.444Z,3280.00
2023-04-06T06:08:02.456Z,3316.00
2023-04-06T06:09:02.453Z,3344.00
2023-04-06T06:10:02.429Z,3372.00
2023-04-06T06:11:02.408Z,3404.00
2023-04-06T06:12:02.410Z,3436.00
2023-04-06T06:13:02.397Z,3464.00
2023-04-06T06:14:02.404Z,3500.00
2023-04-06T06:15:02.502Z,3532.00
2023-04-06T06:16:02.488Z,3568.00
2023-04-06T06:17:02.395Z,3612.00
2023-04-06T06:18:02.511Z,3636.00
2023-04-06T06:19:02.349Z,3668.00
2023-04-06T06:20:02.398Z,3708.00
2023-04-06T06:21:02.339Z,3736.00
2023-04-06T06:22:02.332Z,3768.00
2023-04-06T06:23:02.331Z,3800.00
2023-04-06T06:24:02.353Z,3832.00
2023-04-06T06:25:02.298Z,3864.00
2023-04-06T06:26:02.356Z,3900.00
2023-04-06T06:27:02.290Z,3940.00
2023-04-06T06:28:02.283Z,3980.00
2023-04-06T06:29:02.290Z,4044.00
2023-04-06T06:30:02.299Z,4128.00
2023-04-06T06:31:02.263Z,4300.00
2023-04-06T06:32:02.313Z,19712.00
2023-04-06T06:33:02.278Z,49952.00
2023-04-06T06:34:02.241Z,73600.00
2023-04-06T06:35:02.251Z,75104.00
2023-04-06T06:36:02.281Z,73248.00
2023-04-06T06:37:02.275Z,73664.00
2023-04-06T06:38:02.278Z,76512.00
2023-04-06T06:39:02.216Z,76960.00
2023-04-06T06:40:02.206Z,77152.00
2023-04-06T06:41:02.209Z,78368.00
2023-04-06T06:42:02.195Z,78976.00
2023-04-06T06:43:02.202Z,79104.00
2023-04-06T06:44:02.208Z,79904.00
2023-04-06T06:45:02.203Z,81504.00
2023-04-06T06:46:02.264Z,80928.00
2023-04-06T06:47:02.235Z,78880.00
2023-04-06T06:48:02.329Z,78272.00
2023-04-06T06:49:02.233Z,78080.00
2023-04-06T06:50:02.233Z,79136.00
2023-04-06T06:51:02.221Z,80832.00
2023-04-06T06:52:02.226Z,83424.00
2023-04-06T06:53:02.248Z,80736.00
2023-04-06T06:54:02.261Z,81280.00
2023-04-06T06:55:02.267Z,82816.00
2023-04-06T06:56:02.286Z,81504.00
2023-04-06T06:57:02.247Z,82176.00
2023-04-06T06:58:02.250Z,83712.00
2023-04-06T06:59:02.300Z,83456.00
2023-04-06T07:00:02.306Z,82400.00
2023-04-06T07:01:02.299Z,80320.00
2023-04-06T07:02:02.275Z,79616.00
2023-04-06T07:03:02.327Z,81632.00
2023-04-06T07:04:02.388Z,79072.00
2023-04-06T07:05:04.407Z,75200.00
2023-04-06T07:06:02.313Z,76736.00
2023-04-06T07:07:02.332Z,76608.00
2023-04-06T07:08:02.335Z,72864.00
2023-04-06T07:09:02.331Z,75392.00
2023-04-06T07:10:02.336Z,78176.00
2023-04-06T07:11:02.353Z,79488.00
2023-04-06T07:12:02.373Z,78976.00
2023-04-06T07:13:02.371Z,78464.00
2023-04-06T07:14:02.384Z,80480.00
2023-04-06T07:15:02.401Z,82112.00
2023-04-06T07:16:02.418Z,83392.00
2023-04-06T07:17:02.490Z,84416.00
2023-04-06T07:18:02.456Z,84192.00
2023-04-06T07:19:02.480Z,84192.00
2023-04-06T07:20:02.466Z,83936.00
2023-04-06T07:21:02.481Z,87200.00
2023-04-06T07:22:02.449Z,90848.00
2023-04-06T07:23:02.519Z,86624.00
2023-04-06T07:24:02.469Z,85472.00
2023-04-06T07:25:02.527Z,88352.00
2023-04-06T07:26:02.503Z,91680.00
2023-04-06T07:27:02.510Z,92160.00
2023-04-06T07:28:02.543Z,92192.00
2023-04-06T07:29:02.552Z,89472.00
2023-04-06T07:30:02.539Z,89056.00
2023-04-06T07:31:02.575Z,89216.00
2023-04-06T07:32:02.877Z,88640.00
2023-04-06T07:33:02.705Z,89984.00
2023-04-06T07:34:02.663Z,87968.00
2023-04-06T07:35:02.642Z,85280.00
2023-04-06T07:36:02.676Z,86240.00
2023-04-06T07:37:03.956Z,89536.00
2023-04-06T07:38:02.642Z,87776.00
2023-04-06T07:39:02.638Z,92128.00
2023-04-06T07:40:02.661Z,94368.00
2023-04-06T07:41:02.670Z,92704.00
2023-04-06T07:42:02.702Z,90720.00
2023-04-06T07:43:02.708Z,87488.00
2023-04-06T07:44:02.729Z,86144.00
2023-04-06T07:45:02.736Z,86368.00
2023-04-06T07:46:02.779Z,85920.00
2023-04-06T07:47:02.776Z,84128.00
2023-04-06T07:48:02.868Z,85952.00
2023-04-06T07:49:02.771Z,87328.00
2023-04-06T07:50:02.777Z,84544.00
2023-04-06T07:51:02.789Z,83392.00
2023-04-06T07:52:02.872Z,85152.00
2023-04-06T07:53:02.825Z,87584.00
2023-04-06T07:54:02.824Z,85440.00
2023-04-06T07:55:02.836Z,84000.00
2023-04-06T07:56:02.874Z,80224.00
2023-04-06T07:57:02.908Z,77824.00
2023-04-06T07:58:02.882Z,84960.00
2023-04-06T07:59:02.923Z,84128.00
2023-04-06T08:00:02.945Z,79584.00
2023-04-06T08:01:02.914Z,77824.00
2023-04-06T08:02:02.948Z,81632.00
2023-04-06T08:03:03.119Z,85152.00
2023-04-06T08:04:03.061Z,79232.00
2023-04-06T08:05:02.965Z,82048.00
2023-04-06T08:06:02.975Z,88960.00
2023-04-06T08:07:03.002Z,84640.00
2023-04-06T08:08:03.002Z,84096.00
2023-04-06T08:09:03.021Z,84896.00
2023-04-06T08:10:03.042Z,83808.00
2023-04-06T08:11:03.052Z,80768.00
2023-04-06T08:12:03.059Z,81856.00
2023-04-06T08:13:03.118Z,79968.00
2023-04-06T08:14:03.090Z,78080.00
2023-04-06T08:15:03.097Z,75520.00
2023-04-06T08:16:03.156Z,52800.00
2023-04-06T08:17:05.200Z,24704.00
2023-04-06T08:18:03.166Z,21792.00
2023-04-06T08:19:03.142Z,20480.00
2023-04-06T08:20:03.149Z,19488.00
2023-04-06T08:21:03.186Z,18496.00
2023-04-06T08:22:03.187Z,17664.00
2023-04-06T08:23:03.222Z,16864.00
2023-04-06T08:24:03.194Z,16064.00
2023-04-06T08:25:03.204Z,15168.00
2023-04-06T08:26:03.235Z,14472.00
2023-04-06T08:27:03.230Z,13764.00
2023-04-06T08:28:03.239Z,13152.00
2023-04-06T08:29:03.252Z,12572.00
2023-04-06T08:30:03.292Z,12024.00
2023-04-06T08:31:03.304Z,11500.00
2023-04-06T08:32:03.278Z,11088.00
2023-04-06T08:33:03.403Z,10672.00
2023-04-06T08:34:03.297Z,10232.00
2023-04-06T08:35:03.307Z,9912.00
2023-04-06T08:36:03.373Z,9620.00
2023-04-06T08:37:03.314Z,9324.00
2023-04-06T08:38:03.342Z,9036.00
2023-04-06T08:39:03.335Z,8792.00
2023-04-06T08:40:03.332Z,8580.00
2023-04-06T08:41:03.345Z,8340.00
2023-04-06T08:42:03.335Z,8168.00
2023-04-06T08:43:03.362Z,7904.00
2023-04-06T08:44:03.377Z,7780.00
2023-04-06T08:45:03.395Z,7628.00
2023-04-06T08:46:03.400Z,7472.00
2023-04-06T08:47:03.366Z,7308.00
2023-04-06T08:48:03.410Z,7180.00
2023-04-06T08:49:03.369Z,7068.00
2023-04-06T08:50:03.435Z,6936.00
2023-04-06T08:51:03.456Z,6824.00
2023-04-06T08:52:03.368Z,6696.00
2023-04-06T08:53:03.382Z,6584.00
2023-04-06T08:54:03.378Z,6472.00
2023-04-06T08:55:03.426Z,6340.00
2023-04-06T08:56:03.385Z,6240.00
2023-04-06T08:57:03.406Z,6152.00
2023-04-06T08:58:03.455Z,6076.00
2023-04-06T08:59:03.381Z,5948.00
2023-04-06T09:00:03.392Z,5856.00
2023-04-06T09:01:03.361Z,5796.00
2023-04-06T09:02:03.461Z,5732.00
2023-04-06T09:03:03.426Z,5632.00
2023-04-06T09:04:04.132Z,5572.00
2023-04-06T09:05:03.467Z,5524.00
2023-04-06T09:06:03.352Z,5460.00
2023-04-06T09:07:03.370Z,5408.00
2023-04-06T09:08:03.357Z,5356.00
2023-04-06T09:09:03.369Z,5292.00
2023-04-06T09:10:03.367Z,5220.00
2023-04-06T09:11:03.360Z,5168.00
2023-04-06T09:12:03.361Z,5124.00
2023-04-06T09:13:03.360Z,5084.00
2023-04-06T09:14:03.355Z,5036.00
2023-04-06T09:15:03.347Z,4976.00
2023-04-06T09:16:03.410Z,4952.00
2023-04-06T09:17:03.341Z,4936.00
2023-04-06T09:18:03.383Z,4936.00
2023-04-06T09:19:03.348Z,4980.00
2023-04-06T09:20:03.327Z,5004.00
2023-04-06T09:21:03.331Z,5048.00
2023-04-06T09:22:03.332Z,5092.00
2023-04-06T09:23:03.328Z,5088.00
2023-04-06T09:24:03.417Z,5068.00
2023-04-06T09:25:03.325Z,5044.00
2023-04-06T09:26:03.324Z,4988.00
2023-04-06T09:27:03.355Z,4936.00
2023-04-06T09:28:03.329Z,4908.00
2023-04-06T09:29:03.326Z,4884.00
2023-04-06T09:30:03.390Z,4880.00
2023-04-06T09:31:03.339Z,4896.00
2023-04-06T09:32:03.339Z,4896.00
2023-04-06T09:33:03.438Z,4892.00
2023-04-06T09:34:03.318Z,4900.00
2023-04-06T09:35:03.336Z,4908.00
2023-04-06T09:36:03.368Z,4900.00
2023-04-06T09:37:03.302Z,4900.00
2023-04-06T09:38:03.314Z,4888.00
2023-04-06T09:39:03.293Z,4848.00
2023-04-06T09:40:03.295Z,4816.00
2023-04-06T09:41:03.313Z,4784.00
2023-04-06T09:42:03.301Z,4752.00
2023-04-06T09:43:03.278Z,4740.00
2023-04-06T09:44:03.291Z,4708.00
2023-04-06T09:45:03.297Z,4772.00
2023-04-06T09:46:03.281Z,4792.00
2023-04-06T09:47:03.294Z,4788.00
2023-04-06T09:48:03.366Z,4840.00
2023-04-06T09:49:03.269Z,4864.00
2023-04-06T09:50:03.285Z,4880.00
2023-04-06T09:51:03.272Z,4920.00
2023-04-06T09:52:03.325Z,4924.00
2023-04-06T09:53:03.261Z,4980.00
2023-04-06T09:54:03.273Z,5036.00
2023-04-06T09:55:03.260Z,5056.00
2023-04-06T09:56:03.265Z,5024.00
2023-04-06T09:57:03.401Z,4988.00
2023-04-06T09:58:03.424Z,4976.00
2023-04-06T09:59:03.295Z,4908.00
2023-04-06T10:00:03.232Z,4852.00
2023-04-06T10:01:03.289Z,4816.00
2023-04-06T10:02:03.228Z,4752.00
2023-04-06T10:03:03.336Z,4684.00
2023-04-06T10:04:03.346Z,4628.00
2023-04-06T10:05:03.220Z,4596.00
2023-04-06T10:06:03.227Z,4600.00
2023-04-06T10:07:03.218Z,4592.00
2023-04-06T10:08:03.208Z,4608.00
2023-04-06T10:09:03.209Z,4656.00
2023-04-06T10:10:03.230Z,4696.00
2023-04-06T10:11:03.235Z,4712.00
2023-04-06T10:12:03.253Z,4752.00
2023-04-06T10:13:03.211Z,4756.00
2023-04-06T10:14:03.223Z,4752.00
2023-04-06T10:15:03.255Z,4736.00
2023-04-06T10:16:03.275Z,4692.00
2023-04-06T10:17:03.263Z,4696.00
2023-04-06T10:18:03.339Z,4744.00
2023-04-06T10:19:03.344Z,4792.00
2023-04-06T10:20:03.204Z,4788.00
2023-04-06T10:21:03.254Z,4832.00
2023-04-06T10:22:03.230Z,4908.00
2023-04-06T10:23:03.217Z,5040.00
2023-04-06T10:24:03.173Z,5020.00
2023-04-06T10:25:03.200Z,4972.00
2023-04-06T10:26:03.184Z,4860.00
2023-04-06T10:27:03.196Z,4820.00
2023-04-06T10:28:03.215Z,4896.00
2023-04-06T10:29:03.160Z,5008.00
2023-04-06T10:30:03.173Z,5096.00
2023-04-06T10:31:03.200Z,5148.00
2023-04-06T10:32:03.221Z,5140.00
2023-04-06T10:33:03.249Z,5140.00
2023-04-06T10:34:03.243Z,5192.00
2023-04-06T10:35:03.175Z,5196.00
2023-04-06T10:36:03.169Z,5236.00
2023-04-06T10:37:03.144Z,5252.00
2023-04-06T10:38:03.145Z,4836.00
2023-04-06T10:39:03.165Z,5140.00
2023-04-06T10:40:03.148Z,5120.00
2023-04-06T10:41:03.170Z,5012.00
2023-04-06T10:42:03.150Z,4896.00
2023-04-06T10:43:03.163Z,4776.00
2023-04-06T10:44:03.149Z,4648.00
2023-04-06T10:45:03.125Z,4540.00
2023-04-06T10:46:03.167Z,4544.00
2023-04-06T10:47:03.133Z,4548.00
2023-04-06T10:48:03.188Z,4532.00
2023-04-06T10:49:03.137Z,4516.00
2023-04-06T10:50:03.121Z,4516.00
2023-04-06T10:51:03.143Z,4512.00
2023-04-06T10:52:03.142Z,4468.00
2023-04-06T10:53:03.136Z,3992.00
2023-04-06T10:54:03.108Z,4396.00
2023-04-06T10:55:03.183Z,4412.00
2023-04-06T10:56:03.087Z,4492.00
2023-04-06T10:57:03.094Z,4568.00
2023-04-06T10:58:03.082Z,4600.00
2023-04-06T10:59:03.135Z,4524.00
2023-04-06T11:00:03.075Z,4500.00
2023-04-06T11:01:03.105Z,4444.00
2023-04-06T11:02:03.093Z,4520.00
2023-04-06T11:03:03.169Z,3880.00
2023-04-06T11:04:03.082Z,4516.00
2023-04-06T11:05:03.064Z,4516.00
2023-04-06T11:06:03.057Z,4496.00
2023-04-06T11:07:03.039Z,4476.00
2023-04-06T11:08:03.044Z,3248.00
2023-04-06T11:09:03.040Z,3128.00
2023-04-06T11:11:03.036Z,4076.00
2023-04-06T11:12:03.028Z,4024.00
2023-04-06T11:13:03.017Z,4036.00
2023-04-06T11:14:03.038Z,4072.00
2023-04-06T11:15:03.056Z,4136.00
2023-04-06T11:16:03.023Z,4196.00
2023-04-06T11:17:03.051Z,4224.00
2023-04-06T11:18:03.082Z,4216.00
2023-04-06T11:19:03.045Z,4220.00
2023-04-06T11:20:03.005Z,4236.00
2023-04-06T11:21:03.009Z,4256.00
2023-04-06T11:22:03.002Z,4260.00
2023-04-06T11:23:03.026Z,4252.00
2023-04-06T11:24:03.006Z,4256.00
2023-04-06T11:25:02.994Z,4272.00
2023-04-06T11:26:02.989Z,4308.00
2023-04-06T11:27:02.991Z,4160.00
2023-04-06T11:28:02.991Z,4244.00
2023-04-06T11:29:02.983Z,4368.00
2023-04-06T11:30:03.050Z,4372.00
2023-04-06T11:31:03.016Z,4364.00
2023-04-06T11:32:02.962Z,4448.00
2023-04-06T11:33:03.022Z,4468.00
2023-04-06T11:34:02.975Z,4520.00
2023-04-06T11:35:02.969Z,4132.00
2023-04-06T11:36:02.964Z,3356.00
2023-04-06T11:37:02.968Z,4544.00
2023-04-06T11:38:03.048Z,4552.00
2023-04-06T11:39:02.954Z,3084.00
2023-04-06T11:40:02.997Z,3508.00
2023-04-06T11:41:02.948Z,4056.00
2023-04-06T11:42:02.924Z,3116.00
2023-04-06T11:43:02.924Z,3108.00
2023-04-06T11:44:02.924Z,3188.00
2023-04-06T11:45:03.002Z,3436.00
2023-04-06T11:46:03.047Z,3624.00
2023-04-06T11:47:02.975Z,4620.00
2023-04-06T11:48:04.518Z,5080.00
2023-04-06T11:49:02.951Z,5068.00
2023-04-06T11:50:02.964Z,5124.00
2023-04-06T11:51:02.898Z,5236.00
2023-04-06T11:52:02.887Z,5336.00
2023-04-06T11:53:02.900Z,5380.00
2023-04-06T11:54:02.896Z,5532.00
2023-04-06T11:55:02.875Z,5564.00
2023-04-06T11:56:02.902Z,5492.00
2023-04-06T11:57:02.904Z,5300.00
2023-04-06T11:58:03.008Z,5004.00
2023-04-06T11:59:02.957Z,4700.00
2023-04-06T12:00:02.872Z,4740.00
2023-04-06T12:01:02.862Z,2788.00
2023-04-06T12:02:02.893Z,2824.00
2023-04-06T12:03:02.957Z,2884.00
2023-04-06T12:04:03.063Z,3156.00
2023-04-06T12:05:02.857Z,3008.00
2023-04-06T12:06:02.844Z,3776.00
2023-04-06T12:07:02.860Z,4896.00
2023-04-06T12:08:03.792Z,4860.00
2023-04-06T12:09:02.843Z,3408.00
2023-04-06T12:10:02.839Z,3544.00
2023-04-06T12:11:02.871Z,5360.00
2023-04-06T12:12:02.833Z,5368.00
2023-04-06T12:13:02.822Z,5384.00
2023-04-06T12:14:02.809Z,5388.00
2023-04-06T12:15:02.828Z,5356.00
2023-04-06T12:16:02.872Z,5268.00
2023-04-06T12:17:02.803Z,5260.00
2023-04-06T12:18:02.875Z,5252.00
2023-04-06T12:19:02.801Z,5216.00
2023-04-06T12:20:13.511Z,5232.00
2023-04-06T12:21:02.800Z,5220.00
2023-04-06T12:22:02.807Z,5160.00
2023-04-06T12:23:02.802Z,5112.00
2023-04-06T12:24:02.788Z,5124.00
2023-04-06T12:25:02.785Z,5124.00
2023-04-06T12:26:02.779Z,5112.00
2023-04-06T12:27:09.880Z,5136.00
2023-04-06T12:28:02.763Z,5160.00
2023-04-06T12:29:02.781Z,3988.00